sensor_id;sensor_type;location;lat;lon;timestamp;pressure;altitude;pressure_sealevel;temperature;humidity
71457;BME280;59263;48.160;11.752;2024-01-07T00:02:22;95136.06;;;0.30;100.00
71457;BME280;59263;48.160;11.752;2024-01-07T00:04:48;95136.34;;;0.25;100.00
71457;BME280;59263;48.160;11.752;2024-01-07T00:07:13;95131.75;;;0.17;100.00
71457;BME280;59263;48.160;11.752;2024-01-07T00:09:38;95138.59;;;0.30;100.00
71457;BME280;59263;48.160;11.752;2024-01-07T00:12:04;95129.16;;;0.32;100.00
71457;BME280;59263;48.160;11.752;2024-01-07T00:14:29;95134.13;;;0.20;100.00
71457;BME280;59263;48.160;11.752;2024-01-07T00:16:55;95130.66;;;0.21;100.00
71457;BME280;59263;48.160;11.752;2024-01-07T00:19:20;95130.28;;;0.28;100.00
71457;BME280;59263;48.160;11.752;2024-01-07T00:21:45;95127.22;;;0.35;100.00
71457;BME280;59263;48.160;11.752;2024-01-07T00:24:11;95130.28;;;0.28;100.00
71457;BME280;59263;48.160;11.752;2024-01-07T00:26:36;95127.59;;;0.16;100.00
71457;BME280;59263;48.160;11.752;2024-01-07T00:29:01;95135.13;;;0.18;100.00
71457;BME280;59263;48.160;11.752;2024-01-07T00:31:27;95118.41;;;0.14;100.00
71457;BME280;59263;48.160;11.752;2024-01-07T00:33:52;95136.16;;;0.15;100.00
71457;BME280;59263;48.160;11.752;2024-01-07T00:36:17;95132.69;;;0.16;100.00
71457;BME280;59263;48.160;11.752;2024-01-07T00:38:43;95132.88;;;0.13;100.00
71457;BME280;59263;48.160;11.752;2024-01-07T00:41:08;95128.84;;;0.23;100.00
71457;BME280;59263;48.160;11.752;2024-01-07T00:43:33;95122.31;;;0.19;100.00
71457;BME280;59263;48.160;11.752;2024-01-07T00:45:59;95127.84;;;0.39;100.00
71457;BME280;59263;48.160;11.752;2024-01-07T00:48:24;95130.66;;;0.21;100.00
71457;BME280;59263;48.160;11.752;2024-01-07T00:50:49;95124.56;;;0.24;100.00
71457;BME280;59263;48.160;11.752;2024-01-07T00:53:15;95123.56;;;0.27;100.00
71457;BME280;59263;48.160;11.752;2024-01-07T00:55:40;95132.00;;;0.27;100.00
71457;BME280;59263;48.160;11.752;2024-01-07T00:58:05;95132.31;;;0.22;100.00
71457;BME280;59263;48.160;11.752;2024-01-07T01:00:31;95140.81;;;0.21;100.00
71457;BME280;59263;48.160;11.752;2024-01-07T01:02:56;95119.22;;;0.14;100.00
71457;BME280;59263;48.160;11.752;2024-01-07T01:05:21;95122.13;;;0.22;100.00
71457;BME280;59263;48.160;11.752;2024-01-07T01:07:47;95130.03;;;0.18;100.00
71457;BME280;59263;48.160;11.752;2024-01-07T01:10:12;95127.44;;;0.32;100.00
71457;BME280;59263;48.160;11.752;2024-01-07T01:12:40;95135.16;;;0.31;100.00
71457;BME280;59263;48.160;11.752;2024-01-07T01:15:05;95144.47;;;0.17;100.00
71457;BME280;59263;48.160;11.752;2024-01-07T01:17:31;95137.78;;;0.16;100.00
71457;BME280;59263;48.160;11.752;2024-01-07T01:19:56;95136.84;;;0.17;100.00
71457;BME280;59263;48.160;11.752;2024-01-07T01:22:21;95138.38;;;0.20;100.00
71457;BME280;59263;48.160;11.752;2024-01-07T01:24:47;95127.09;;;0.24;100.00
71457;BME280;59263;48.160;11.752;2024-01-07T01:27:14;95133.31;;;0.20;100.00
71457;BME280;59263;48.160;11.752;2024-01-07T01:29:40;95139.34;;;0.32;100.00
71457;BME280;59263;48.160;11.752;2024-01-07T01:32:06;95138.59;;;0.30;100.00
71457;BME280;59263;48.160;11.752;2024-01-07T01:34:31;95135.34;;;0.28;100.00
71457;BME280;59263;48.160;11.752;2024-01-07T01:36:57;95125.19;;;0.40;100.00
71457;BME280;59263;48.160;11.752;2024-01-07T01:39:22;95135.16;;;0.31;100.00
71457;BME280;59263;48.160;11.752;2024-01-07T01:41:48;95142.81;;;0.31;100.00
71457;BME280;59263;48.160;11.752;2024-01-07T01:44:13;95136.78;;;0.32;100.00
71457;BME280;59263;48.160;11.752;2024-01-07T01:46:38;95142.38;;;0.37;100.00
71457;BME280;59263;48.160;11.752;2024-01-07T01:49:05;95135.34;;;0.28;100.00
71457;BME280;59263;48.160;11.752;2024-01-07T01:51:31;95132.31;;;0.22;100.00
71457;BME280;59263;48.160;11.752;2024-01-07T01:53:58;95139.38;;;0.17;100.00
71457;BME280;59263;48.160;11.752;2024-01-07T01:56:27;95135.22;;;0.16;100.00
71457;BME280;59263;48.160;11.752;2024-01-07T01:58:52;95122.50;;;0.16;100.00
71457;BME280;59263;48.160;11.752;2024-01-07T02:01:18;95130.88;;;0.31;100.00
71457;BME280;59263;48.160;11.752;2024-01-07T02:03:43;95130.16;;;0.29;100.00
71457;BME280;59263;48.160;11.752;2024-01-07T02:06:09;95124.13;;;0.17;100.00
71457;BME280;59263;48.160;11.752;2024-01-07T02:08:35;95137.56;;;0.19;100.00
71457;BME280;59263;48.160;11.752;2024-01-07T02:11:17;95130.31;;;0.13;100.00
71457;BME280;59263;48.160;11.752;2024-01-07T02:13:43;95132.00;;;0.27;100.00
71457;BME280;59263;48.160;11.752;2024-01-07T02:16:09;95125.63;;;0.34;100.00
71457;BME280;59263;48.160;11.752;2024-01-07T02:18:34;95135.88;;;0.33;100.00
71457;BME280;59263;48.160;11.752;2024-01-07T02:21:00;95128.22;;;0.20;100.00
71457;BME280;59263;48.160;11.752;2024-01-07T02:23:25;95128.84;;;0.23;100.00
71457;BME280;59263;48.160;11.752;2024-01-07T02:25:50;95123.84;;;0.22;100.00
71457;BME280;59263;48.160;11.752;2024-01-07T02:28:16;95131.56;;;0.20;100.00
71457;BME280;59263;48.160;11.752;2024-01-07T02:30:41;95126.09;;;0.27;100.00
71457;BME280;59263;48.160;11.752;2024-01-07T02:33:06;95135.72;;;0.21;100.00
71457;BME280;59263;48.160;11.752;2024-01-07T02:35:32;95127.22;;;0.22;100.00
71457;BME280;59263;48.160;11.752;2024-01-07T02:37:57;95136.78;;;0.32;100.00
71457;BME280;59263;48.160;11.752;2024-01-07T02:40:22;95133.31;;;0.33;100.00
71457;BME280;59263;48.160;11.752;2024-01-07T02:42:48;95132.50;;;0.19;100.00
71457;BME280;59263;48.160;11.752;2024-01-07T02:45:13;95131.25;;;0.12;100.00
71457;BME280;59263;48.160;11.752;2024-01-07T02:47:39;95132.19;;;0.24;100.00
71457;BME280;59263;48.160;11.752;2024-01-07T02:50:04;95130.84;;;0.18;100.00
71457;BME280;59263;48.160;11.752;2024-01-07T02:52:30;95124.59;;;0.37;100.00
71457;BME280;59263;48.160;11.752;2024-01-07T02:54:55;95118.97;;;0.32;100.00
71457;BME280;59263;48.160;11.752;2024-01-07T02:57:20;95125.00;;;0.31;100.00
71457;BME280;59263;48.160;11.752;2024-01-07T02:59:46;95126.63;;;0.32;100.00
71457;BME280;59263;48.160;11.752;2024-01-07T03:02:11;95113.28;;;0.28;100.00
71457;BME280;59263;48.160;11.752;2024-01-07T03:04:36;95120.66;;;0.18;100.00
71457;BME280;59263;48.160;11.752;2024-01-07T03:07:02;95125.41;;;0.37;100.00
71457;BME280;59263;48.160;11.752;2024-01-07T03:09:27;95121.66;;;0.43;100.00
71457;BME280;59263;48.160;11.752;2024-01-07T03:11:53;95123.28;;;0.44;100.00
71457;BME280;59263;48.160;11.752;2024-01-07T03:14:19;95121.97;;;0.38;100.00
71457;BME280;59263;48.160;11.752;2024-01-07T03:16:46;95121.34;;;0.47;100.00
71457;BME280;59263;48.160;11.752;2024-01-07T03:19:11;95116.94;;;0.37;100.00
71457;BME280;59263;48.160;11.752;2024-01-07T03:21:37;95114.81;;;0.31;100.00
71457;BME280;59263;48.160;11.752;2024-01-07T03:24:03;95129.88;;;0.34;100.00
71457;BME280;59263;48.160;11.752;2024-01-07T03:26:32;95127.53;;;0.31;100.00
71457;BME280;59263;48.160;11.752;2024-01-07T03:28:58;95127.22;;;0.22;100.00
71457;BME280;59263;48.160;11.752;2024-01-07T03:31:25;95128.97;;;0.35;100.00
71457;BME280;59263;48.160;11.752;2024-01-07T03:33:50;95119.38;;;0.26;100.00
71457;BME280;59263;48.160;11.752;2024-01-07T03:36:16;95123.63;;;0.52;100.00
71457;BME280;59263;48.160;11.752;2024-01-07T03:38:41;95129.34;;;0.29;100.00
71457;BME280;59263;48.160;11.752;2024-01-07T03:41:07;95130.78;;;0.33;100.00
71457;BME280;59263;48.160;11.752;2024-01-07T03:43:33;95136.97;;;0.29;100.00
71457;BME280;59263;48.160;11.752;2024-01-07T03:45:59;95145.34;;;0.31;100.00
71457;BME280;59263;48.160;11.752;2024-01-07T03:48:25;95131.69;;;0.32;100.00
71457;BME280;59263;48.160;11.752;2024-01-07T03:50:51;95141.06;;;0.31;100.00
71457;BME280;59263;48.160;11.752;2024-01-07T03:53:16;95141.50;;;0.38;100.00
71457;BME280;59263;48.160;11.752;2024-01-07T03:55:42;95117.25;;;0.32;100.00
71457;BME280;59263;48.160;11.752;2024-01-07T03:58:07;95127.91;;;0.24;100.00
71457;BME280;59263;48.160;11.752;2024-01-07T04:00:33;95146.03;;;0.33;100.00
71457;BME280;59263;48.160;11.752;2024-01-07T04:02:59;95149.50;;;0.32;100.00
71457;BME280;59263;48.160;11.752;2024-01-07T04:05:25;95139.56;;;0.41;100.00
71457;BME280;59263;48.160;11.752;2024-01-07T04:07:50;95145.84;;;0.36;100.00
71457;BME280;59263;48.160;11.752;2024-01-07T04:10:18;95131.72;;;0.44;100.00
71457;BME280;59263;48.160;11.752;2024-01-07T04:12:44;95138.47;;;0.45;100.00
71457;BME280;59263;48.160;11.752;2024-01-07T04:15:11;95154.22;;;0.38;100.00
71457;BME280;59263;48.160;11.752;2024-01-07T04:17:37;95135.69;;;0.36;100.00
71457;BME280;59263;48.160;11.752;2024-01-07T04:20:03;95134.19;;;0.46;100.00
71457;BME280;59263;48.160;11.752;2024-01-07T04:22:28;95143.50;;;0.33;100.00
71457;BME280;59263;48.160;11.752;2024-01-07T04:24:54;95145.16;;;0.34;100.00
71457;BME280;59263;48.160;11.752;2024-01-07T04:27:19;95158.38;;;0.39;100.00
71457;BME280;59263;48.160;11.752;2024-01-07T04:29:44;95149.84;;;0.40;100.00
71457;BME280;59263;48.160;11.752;2024-01-07T04:32:10;95143.13;;;0.39;100.00
71457;BME280;59263;48.160;11.752;2024-01-07T04:34:35;95163.09;;;0.45;100.00
71457;BME280;59263;48.160;11.752;2024-01-07T04:37:00;95156.97;;;0.35;100.00
71457;BME280;59263;48.160;11.752;2024-01-07T04:39:26;95150.44;;;0.31;100.00
71457;BME280;59263;48.160;11.752;2024-01-07T04:41:51;95168.56;;;0.39;100.00
71457;BME280;59263;48.160;11.752;2024-01-07T04:44:17;95165.59;;;0.32;100.00
71457;BME280;59263;48.160;11.752;2024-01-07T04:46:42;95167.50;;;0.29;100.00
71457;BME280;59263;48.160;11.752;2024-01-07T04:49:08;95168.75;;;0.36;100.00
71457;BME280;59263;48.160;11.752;2024-01-07T04:51:33;95167.97;;;0.48;100.00
71457;BME280;59263;48.160;11.752;2024-01-07T04:53:59;95175.19;;;0.41;100.00
71457;BME280;59263;48.160;11.752;2024-01-07T04:56:24;95182.22;;;0.38;100.00
71457;BME280;59263;48.160;11.752;2024-01-07T04:58:49;95176.19;;;0.39;100.00
71457;BME280;59263;48.160;11.752;2024-01-07T05:01:15;95181.66;;;0.33;100.00
71457;BME280;59263;48.160;11.752;2024-01-07T05:03:40;95187.13;;;0.41;100.00
71457;BME280;59263;48.160;11.752;2024-01-07T05:06:08;95181.81;;;0.44;100.00
71457;BME280;59263;48.160;11.752;2024-01-07T05:08:34;95181.41;;;0.50;100.00
71457;BME280;59263;48.160;11.752;2024-01-07T05:10:59;95196.06;;;0.46;100.00
71457;BME280;59263;48.160;11.752;2024-01-07T05:13:25;95189.41;;;0.31;100.00
71457;BME280;59263;48.160;11.752;2024-01-07T05:15:50;95202.03;;;0.33;100.00
71457;BME280;59263;48.160;11.752;2024-01-07T05:18:22;95176.75;;;0.30;100.00
71457;BME280;59263;48.160;11.752;2024-01-07T05:20:48;95192.75;;;0.32;100.00
71457;BME280;59263;48.160;11.752;2024-01-07T05:23:14;95191.56;;;0.37;100.00
71457;BME280;59263;48.160;11.752;2024-01-07T05:25:39;95182.88;;;0.27;100.00
71457;BME280;59263;48.160;11.752;2024-01-07T05:28:05;95196.72;;;0.23;100.00
71457;BME280;59263;48.160;11.752;2024-01-07T05:30:31;95197.72;;;0.20;100.00
71457;BME280;59263;48.160;11.752;2024-01-07T05:32:56;95189.25;;;0.20;100.00
71457;BME280;59263;48.160;11.752;2024-01-07T05:35:22;95204.00;;;0.42;100.00
71457;BME280;59263;48.160;11.752;2024-01-07T05:37:47;95201.75;;;0.37;100.00
71457;BME280;59263;48.160;11.752;2024-01-07T05:40:12;95194.56;;;0.30;100.00
71457;BME280;59263;48.160;11.752;2024-01-07T05:42:38;95197.34;;;0.27;100.00
71457;BME280;59263;48.160;11.752;2024-01-07T05:45:04;95200.06;;;0.23;100.00
71457;BME280;59263;48.160;11.752;2024-01-07T05:47:29;95205.72;;;0.14;100.00
71457;BME280;59263;48.160;11.752;2024-01-07T05:49:55;95205.34;;;0.20;100.00
71457;BME280;59263;48.160;11.752;2024-01-07T05:52:21;95210.91;;;0.40;100.00
71457;BME280;59263;48.160;11.752;2024-01-07T05:54:46;95209.25;;;0.26;100.00
71457;BME280;59263;48.160;11.752;2024-01-07T05:57:12;95206.16;;;0.21;100.00
71457;BME280;59263;48.160;11.752;2024-01-07T05:59:37;95224.94;;;0.18;100.00
71457;BME280;59263;48.160;11.752;2024-01-07T06:02:03;95217.84;;;0.38;100.00
71457;BME280;59263;48.160;11.752;2024-01-07T06:04:28;95214.34;;;0.26;100.00
71457;BME280;59263;48.160;11.752;2024-01-07T06:06:53;95221.03;;;0.27;100.00
71457;BME280;59263;48.160;11.752;2024-01-07T06:09:19;95210.53;;;0.46;100.00
71457;BME280;59263;48.160;11.752;2024-01-07T06:11:44;95229.81;;;0.36;100.00
71457;BME280;59263;48.160;11.752;2024-01-07T06:14:09;95221.06;;;0.40;100.00
71457;BME280;59263;48.160;11.752;2024-01-07T06:16:35;95221.69;;;0.43;100.00
71457;BME280;59263;48.160;11.752;2024-01-07T06:19:00;95223.31;;;0.44;100.00
71457;BME280;59263;48.160;11.752;2024-01-07T06:21:25;95217.84;;;0.38;100.00
71457;BME280;59263;48.160;11.752;2024-01-07T06:23:51;95230.16;;;0.44;100.00
71457;BME280;59263;48.160;11.752;2024-01-07T06:26:17;95218.94;;;0.34;100.00
71457;BME280;59263;48.160;11.752;2024-01-07T06:28:42;95220.72;;;0.46;100.00
71457;BME280;59263;48.160;11.752;2024-01-07T06:31:07;95225.78;;;0.46;100.00
71457;BME280;59263;48.160;11.752;2024-01-07T06:33:33;95232.50;;;0.47;100.00
71457;BME280;59263;48.160;11.752;2024-01-07T06:35:59;95235.78;;;0.49;100.00
71457;BME280;59263;48.160;11.752;2024-01-07T06:38:25;95235.72;;;0.36;100.00
71457;BME280;59263;48.160;11.752;2024-01-07T06:40:50;95236.81;;;0.59;100.00
71457;BME280;59263;48.160;11.752;2024-01-07T06:43:16;95237.22;;;0.53;100.00
71457;BME280;59263;48.160;11.752;2024-01-07T06:45:42;95239.34;;;0.46;100.00
71457;BME280;59263;48.160;11.752;2024-01-07T06:48:08;95251.25;;;0.46;100.00
71457;BME280;59263;48.160;11.752;2024-01-07T06:50:34;95243.94;;;0.54;100.00
71457;BME280;59263;48.160;11.752;2024-01-07T06:52:59;95244.00;;;0.67;100.00
71457;BME280;59263;48.160;11.752;2024-01-07T06:55:25;95248.84;;;0.57;100.00
71457;BME280;59263;48.160;11.752;2024-01-07T06:57:50;95240.69;;;0.52;100.00
71457;BME280;59263;48.160;11.752;2024-01-07T07:00:16;95254.16;;;0.40;100.00
71457;BME280;59263;48.160;11.752;2024-01-07T07:02:43;95268.31;;;0.44;100.00
71457;BME280;59263;48.160;11.752;2024-01-07T07:05:08;95259.16;;;0.41;100.00
71457;BME280;59263;48.160;11.752;2024-01-07T07:07:34;95262.34;;;0.45;100.00
71457;BME280;59263;48.160;11.752;2024-01-07T07:09:59;95268.13;;;0.47;100.00
71457;BME280;59263;48.160;11.752;2024-01-07T07:12:24;95276.50;;;0.49;100.00
71457;BME280;59263;48.160;11.752;2024-01-07T07:14:50;95271.22;;;0.52;100.00
71457;BME280;59263;48.160;11.752;2024-01-07T07:17:15;95268.63;;;0.39;100.00
71457;BME280;59263;48.160;11.752;2024-01-07T07:19:40;95282.25;;;0.38;100.00
71457;BME280;59263;48.160;11.752;2024-01-07T07:22:06;95282.97;;;0.40;100.00
71457;BME280;59263;48.160;11.752;2024-01-07T07:24:31;95293.41;;;0.50;100.00
71457;BME280;59263;48.160;11.752;2024-01-07T07:26:56;95294.06;;;0.39;100.00
71457;BME280;59263;48.160;11.752;2024-01-07T07:29:22;95271.25;;;0.38;100.00
71457;BME280;59263;48.160;11.752;2024-01-07T07:31:47;95290.53;;;0.42;100.00
71457;BME280;59263;48.160;11.752;2024-01-07T07:34:12;95294.84;;;0.54;100.00
71457;BME280;59263;48.160;11.752;2024-01-07T07:36:38;95299.31;;;0.51;100.00
71457;BME280;59263;48.160;11.752;2024-01-07T07:39:06;95298.03;;;0.43;100.00
71457;BME280;59263;48.160;11.752;2024-01-07T07:41:31;95300.13;;;0.51;100.00
71457;BME280;59263;48.160;11.752;2024-01-07T07:43:56;95294.81;;;0.41;100.00
71457;BME280;59263;48.160;11.752;2024-01-07T07:46:22;95305.38;;;0.48;100.00
71457;BME280;59263;48.160;11.752;2024-01-07T07:48:48;95305.75;;;0.56;100.00
71457;BME280;59263;48.160;11.752;2024-01-07T07:51:13;95308.38;;;0.55;100.00
71457;BME280;59263;48.160;11.752;2024-01-07T07:53:39;95308.78;;;0.48;100.00
71457;BME280;59263;48.160;11.752;2024-01-07T07:56:08;95313.13;;;0.46;100.00
71457;BME280;59263;48.160;11.752;2024-01-07T07:58:36;95313.94;;;0.47;100.00
71457;BME280;59263;48.160;11.752;2024-01-07T08:01:06;95312.50;;;0.43;100.00
71457;BME280;59263;48.160;11.752;2024-01-07T08:03:32;95313.97;;;0.33;100.00
71457;BME280;59263;48.160;11.752;2024-01-07T08:05:57;95312.50;;;0.43;100.00
71457;BME280;59263;48.160;11.752;2024-01-07T08:08:23;95322.50;;;0.46;100.00
71457;BME280;59263;48.160;11.752;2024-01-07T08:10:48;95328.69;;;0.42;100.00
71457;BME280;59263;48.160;11.752;2024-01-07T08:13:13;95319.06;;;0.33;100.00
71457;BME280;59263;48.160;11.752;2024-01-07T08:15:39;95336.16;;;0.45;100.00
71457;BME280;59263;48.160;11.752;2024-01-07T08:18:05;95337.59;;;0.49;100.00
71457;BME280;59263;48.160;11.752;2024-01-07T08:20:30;95330.50;;;0.40;100.00
71457;BME280;59263;48.160;11.752;2024-01-07T08:22:56;95332.69;;;0.46;100.00
71457;BME280;59263;48.160;11.752;2024-01-07T08:25:21;95355.94;;;0.54;100.00
71457;BME280;59263;48.160;11.752;2024-01-07T08:27:47;95352.22;;;0.45;100.00
71457;BME280;59263;48.160;11.752;2024-01-07T08:30:13;95355.66;;;0.44;100.00
71457;BME280;59263;48.160;11.752;2024-01-07T08:32:39;95354.22;;;0.40;100.00
71457;BME280;59263;48.160;11.752;2024-01-07T08:35:05;95350.22;;;0.51;100.00
71457;BME280;59263;48.160;11.752;2024-01-07T08:37:30;95357.22;;;0.47;100.00
71457;BME280;59263;48.160;11.752;2024-01-07T08:39:56;95360.16;;;0.41;100.00
71457;BME280;59263;48.160;11.752;2024-01-07T08:42:21;95358.59;;;0.38;100.00
71457;BME280;59263;48.160;11.752;2024-01-07T08:44:47;95366.69;;;0.45;100.00
71457;BME280;59263;48.160;11.752;2024-01-07T08:47:12;95361.78;;;0.42;100.00
71457;BME280;59263;48.160;11.752;2024-01-07T08:49:38;95366.47;;;0.48;100.00
71457;BME280;59263;48.160;11.752;2024-01-07T08:52:04;95371.94;;;0.42;100.00
71457;BME280;59263;48.160;11.752;2024-01-07T08:54:35;95367.50;;;0.45;100.00
71457;BME280;59263;48.160;11.752;2024-01-07T08:57:01;95373.22;;;0.49;100.00
71457;BME280;59263;48.160;11.752;2024-01-07T08:59:26;95377.75;;;0.30;100.00
71457;BME280;59263;48.160;11.752;2024-01-07T09:01:51;95379.88;;;0.37;100.00
71457;BME280;59263;48.160;11.752;2024-01-07T09:04:17;95380.69;;;0.38;100.00
71457;BME280;59263;48.160;11.752;2024-01-07T09:06:43;95388.31;;;0.38;100.00
71457;BME280;59263;48.160;11.752;2024-01-07T09:09:09;95384.13;;;0.37;100.00
71457;BME280;59263;48.160;11.752;2024-01-07T09:11:34;95383.47;;;0.47;100.00
71457;BME280;59263;48.160;11.752;2024-01-07T09:14:00;95392.13;;;0.45;100.00
71457;BME280;59263;48.160;11.752;2024-01-07T09:16:26;95389.19;;;0.51;100.00
71457;BME280;59263;48.160;11.752;2024-01-07T09:18:51;95392.56;;;0.52;100.00
71457;BME280;59263;48.160;11.752;2024-01-07T09:21:17;95393.66;;;0.33;100.00
71457;BME280;59263;48.160;11.752;2024-01-07T09:23:44;95408.66;;;0.52;100.00
71457;BME280;59263;48.160;11.752;2024-01-07T09:26:09;95409.03;;;0.46;100.00
71457;BME280;59263;48.160;11.752;2024-01-07T09:28:34;95401.47;;;0.44;100.00
71457;BME280;59263;48.160;11.752;2024-01-07T09:31:00;95412.28;;;0.48;100.00
71457;BME280;59263;48.160;11.752;2024-01-07T09:33:25;95419.03;;;0.49;100.00
71457;BME280;59263;48.160;11.752;2024-01-07T09:35:50;95407.41;;;0.45;100.00
71457;BME280;59263;48.160;11.752;2024-01-07T09:38:16;95412.28;;;0.48;100.00
71457;BME280;59263;48.160;11.752;2024-01-07T09:40:41;95411.09;;;0.54;100.00
71457;BME280;59263;48.160;11.752;2024-01-07T09:43:07;95406.19;;;0.51;100.00
71457;BME280;59263;48.160;11.752;2024-01-07T09:45:36;95413.13;;;0.48;100.00
71457;BME280;59263;48.160;11.752;2024-01-07T09:48:02;95408.84;;;0.49;100.00
71457;BME280;59263;48.160;11.752;2024-01-07T09:50:27;95401.22;;;0.49;100.00
71457;BME280;59263;48.160;11.752;2024-01-07T09:52:56;95411.38;;;0.63;100.00
71457;BME280;59263;48.160;11.752;2024-01-07T09:55:27;64556.69;;;-144.28;100.00
71457;BME280;59263;48.160;11.752;2024-01-07T09:57:55;64556.69;;;-144.28;100.00
71457;BME280;59263;48.160;11.752;2024-01-07T10:00:20;64556.69;;;-144.28;100.00
71457;BME280;59263;48.160;11.752;2024-01-07T10:02:45;64556.69;;;-144.28;100.00
71457;BME280;59263;48.160;11.752;2024-01-07T10:05:11;64556.69;;;-144.28;100.00
71457;BME280;59263;48.160;11.752;2024-01-07T10:07:36;64556.69;;;-144.28;100.00
71457;BME280;59263;48.160;11.752;2024-01-07T10:10:14;64556.69;;;-144.28;100.00
71457;BME280;59263;48.160;11.752;2024-01-07T10:12:40;64556.69;;;-144.28;100.00
71457;BME280;59263;48.160;11.752;2024-01-07T10:15:06;64556.69;;;-144.28;100.00
71457;BME280;59263;48.160;11.752;2024-01-07T10:17:32;64556.69;;;-144.28;100.00
71457;BME280;59263;48.160;11.752;2024-01-07T10:19:58;64556.69;;;-144.28;100.00
71457;BME280;59263;48.160;11.752;2024-01-07T10:22:23;64556.69;;;-144.28;100.00
71457;BME280;59263;48.160;11.752;2024-01-07T10:24:51;64556.69;;;-144.28;100.00
71457;BME280;59263;48.160;11.752;2024-01-07T10:27:17;64556.69;;;-144.28;100.00
71457;BME280;59263;48.160;11.752;2024-01-07T10:29:42;64556.69;;;-144.28;100.00
71457;BME280;59263;48.160;11.752;2024-01-07T10:32:08;64556.69;;;-144.28;100.00
71457;BME280;59263;48.160;11.752;2024-01-07T10:34:35;64556.69;;;-144.28;100.00
71457;BME280;59263;48.160;11.752;2024-01-07T10:37:03;64556.69;;;-144.28;100.00
71457;BME280;59263;48.160;11.752;2024-01-07T10:39:29;64556.69;;;-144.28;100.00
71457;BME280;59263;48.160;11.752;2024-01-07T10:41:56;64556.69;;;-144.28;100.00
71457;BME280;59263;48.160;11.752;2024-01-07T10:44:29;64556.69;;;-144.28;100.00
71457;BME280;59263;48.160;11.752;2024-01-07T10:46:55;64556.69;;;-144.28;100.00
71457;BME280;59263;48.160;11.752;2024-01-07T10:49:23;64556.69;;;-144.28;100.00
71457;BME280;59263;48.160;11.752;2024-01-07T10:52:05;64556.69;;;-144.28;100.00
71457;BME280;59263;48.160;11.752;2024-01-07T10:54:32;64556.69;;;-144.28;100.00
71457;BME280;59263;48.160;11.752;2024-01-07T10:57:13;64556.69;;;-144.28;100.00
71457;BME280;59263;48.160;11.752;2024-01-07T10:59:45;64556.69;;;-144.28;100.00
71457;BME280;59263;48.160;11.752;2024-01-07T11:02:11;64556.69;;;-144.28;100.00
71457;BME280;59263;48.160;11.752;2024-01-07T11:05:08;64556.69;;;-144.28;100.00
71457;BME280;59263;48.160;11.752;2024-01-07T11:07:46;64556.69;;;-144.28;100.00
71457;BME280;59263;48.160;11.752;2024-01-07T11:12:43;64556.69;;;-144.28;100.00
71457;BME280;59263;48.160;11.752;2024-01-07T11:15:08;64556.69;;;-144.28;100.00
71457;BME280;59263;48.160;11.752;2024-01-07T11:20:16;64556.69;;;-144.28;100.00
71457;BME280;59263;48.160;11.752;2024-01-07T11:22:42;64556.69;;;-144.28;100.00
71457;BME280;59263;48.160;11.752;2024-01-07T11:25:32;64556.69;;;-144.28;100.00
71457;BME280;59263;48.160;11.752;2024-01-07T11:27:59;64556.69;;;-144.28;100.00
71457;BME280;59263;48.160;11.752;2024-01-07T11:30:26;64556.69;;;-144.28;100.00
71457;BME280;59263;48.160;11.752;2024-01-07T11:32:59;64556.69;;;-144.28;100.00
71457;BME280;59263;48.160;11.752;2024-01-07T11:35:57;64556.69;;;-144.28;100.00
71457;BME280;59263;48.160;11.752;2024-01-07T11:38:23;64556.69;;;-144.28;100.00
71457;BME280;59263;48.160;11.752;2024-01-07T11:40:49;64556.69;;;-144.28;100.00
71457;BME280;59263;48.160;11.752;2024-01-07T11:43:15;64556.69;;;-144.28;100.00
71457;BME280;59263;48.160;11.752;2024-01-07T11:45:40;64556.69;;;-144.28;100.00
71457;BME280;59263;48.160;11.752;2024-01-07T11:48:05;64556.69;;;-144.28;100.00
71457;BME280;59263;48.160;11.752;2024-01-07T11:50:31;64556.69;;;-144.28;100.00
71457;BME280;59263;48.160;11.752;2024-01-07T11:52:56;64556.69;;;-144.28;100.00
71457;BME280;59263;48.160;11.752;2024-01-07T11:55:22;64556.69;;;-144.28;100.00
71457;BME280;59263;48.160;11.752;2024-01-07T11:57:48;64556.69;;;-144.28;100.00
71457;BME280;59263;48.160;11.752;2024-01-07T12:00:14;64556.69;;;-144.28;100.00
71457;BME280;59263;48.160;11.752;2024-01-07T12:02:39;64556.69;;;-144.28;100.00
71457;BME280;59263;48.160;11.752;2024-01-07T12:05:05;64556.69;;;-144.28;100.00
71457;BME280;59263;48.160;11.752;2024-01-07T12:07:30;64556.69;;;-144.28;100.00
71457;BME280;59263;48.160;11.752;2024-01-07T12:09:57;64556.69;;;-144.28;100.00
71457;BME280;59263;48.160;11.752;2024-01-07T12:12:23;64556.69;;;-144.28;100.00
71457;BME280;59263;48.160;11.752;2024-01-07T12:14:48;64556.69;;;-144.28;100.00
71457;BME280;59263;48.160;11.752;2024-01-07T12:17:17;64556.69;;;-144.28;100.00
71457;BME280;59263;48.160;11.752;2024-01-07T12:19:42;64556.69;;;-144.28;100.00
71457;BME280;59263;48.160;11.752;2024-01-07T12:22:08;64556.69;;;-144.28;100.00
71457;BME280;59263;48.160;11.752;2024-01-07T12:24:34;64556.69;;;-144.28;100.00
71457;BME280;59263;48.160;11.752;2024-01-07T12:27:07;64556.69;;;-144.28;100.00
71457;BME280;59263;48.160;11.752;2024-01-07T12:29:32;64556.69;;;-144.28;100.00
71457;BME280;59263;48.160;11.752;2024-01-07T12:31:59;64556.69;;;-144.28;100.00
71457;BME280;59263;48.160;11.752;2024-01-07T12:34:25;64556.69;;;-144.28;100.00
71457;BME280;59263;48.160;11.752;2024-01-07T12:36:50;64556.69;;;-144.28;100.00
71457;BME280;59263;48.160;11.752;2024-01-07T12:39:16;64556.69;;;-144.28;100.00
71457;BME280;59263;48.160;11.752;2024-01-07T12:41:42;64556.69;;;-144.28;100.00
71457;BME280;59263;48.160;11.752;2024-01-07T12:44:07;64556.69;;;-144.28;100.00